Time;durP1;ratioP1;P1;durP2;ratioP2;P2;SDS_P1;SDS_P2;PMS_P1;PMS_P2;Temp;Humidity;BMP_temperature;BMP_pressure;BME280_temperature;BME280_humidity;BME280_pressure;Samples;Min_cycle;Max_cycle;Signal;HPM_P1;HPM_P2
2023/09/15 00:02:05;;;;;;;0.98;0.70;;;;;;;22.56;44.21;101119.19;4526803;28;20044;-63
2023/09/15 00:04:15;;;;;;;0.85;0.73;;;;;;;22.58;44.44;101127.47;4540030;28;20144;-63
2023/09/15 00:06:26;;;;;;;0.70;0.70;;;;;;;22.58;44.56;101116.75;4536983;28;20199;-63
2023/09/15 00:08:37;;;;;;;1.05;0.77;;;;;;;22.57;44.65;101114.25;4538524;28;20048;-63
2023/09/15 00:10:48;;;;;;;0.70;0.70;;;;;;;22.53;44.37;101107.59;4538272;28;20519;-63
2023/09/15 00:12:58;;;;;;;0.90;0.75;;;;;;;22.51;44.29;101116.56;4538073;28;20037;-66
2023/09/15 00:15:10;;;;;;;0.85;0.65;;;;;;;22.57;44.14;101115.09;4537727;28;20039;-64
2023/09/15 00:17:20;;;;;;;0.73;0.60;;;;;;;22.55;43.83;101111.75;4542601;28;20125;-64
2023/09/15 00:19:31;;;;;;;0.90;0.65;;;;;;;22.54;44.02;101110.09;4539783;28;20564;-65
2023/09/15 00:21:43;;;;;;;0.70;0.63;;;;;;;22.56;43.89;101112.59;4538189;28;20065;-66
2023/09/15 00:23:53;;;;;;;0.70;0.70;;;;;;;22.54;44.07;101109.25;4536771;28;20048;-65
2023/09/15 00:26:04;;;;;;;1.25;0.80;;;;;;;22.53;44.09;101102.69;4536170;28;20039;-65
2023/09/15 00:28:15;;;;;;;0.73;0.63;;;;;;;22.54;44.39;101115.84;4511096;28;20053;-65
2023/09/15 00:30:27;;;;;;;0.88;0.65;;;;;;;22.55;43.82;101111.75;4534269;28;20037;-65
2023/09/15 00:32:38;;;;;;;0.60;0.60;;;;;;;22.54;43.96;101106.38;4538444;28;20068;-65
2023/09/15 00:34:48;;;;;;;1.00;0.70;;;;;;;22.48;44.16;101094.28;4539305;28;20121;-65
2023/09/15 00:36:59;;;;;;;0.90;0.60;;;;;;;22.51;44.35;101107.06;4538103;28;20099;-65
2023/09/15 00:39:09;;;;;;;0.80;0.60;;;;;;;22.50;43.91;101102.53;4523037;28;20040;-65
2023/09/15 00:41:20;;;;;;;1.35;0.63;;;;;;;22.53;43.90;101108.44;4538644;28;20029;-65
2023/09/15 00:43:30;;;;;;;1.25;0.80;;;;;;;22.53;43.54;101098.94;4538392;28;20052;-65
2023/09/15 00:45:41;;;;;;;1.33;0.70;;;;;;;22.50;43.86;101105.41;4524901;28;20203;-65
2023/09/15 00:47:56;;;;;;;0.88;0.70;;;;;;;22.52;44.18;101100.13;4530208;28;20035;-65
2023/09/15 00:50:08;;;;;;;0.93;0.60;;;;;;;22.47;43.60;101086.00;4520412;28;20032;-65
2023/09/15 00:52:19;;;;;;;1.17;0.70;;;;;;;22.51;44.08;101092.69;4525872;28;20033;-65
2023/09/15 00:54:30;;;;;;;1.45;0.73;;;;;;;22.50;44.26;101093.91;4536498;28;20038;-65
2023/09/15 00:56:41;;;;;;;0.80;0.60;;;;;;;22.50;44.24;101093.91;4537599;28;20769;-65
2023/09/15 00:58:51;;;;;;;0.75;0.70;;;;;;;22.48;44.50;101082.78;4539147;28;20041;-65
2023/09/15 01:01:06;;;;;;;0.60;0.60;;;;;;;22.46;43.76;101078.56;4519436;28;20144;-65
2023/09/15 01:03:20;;;;;;;0.90;0.70;;;;;;;22.51;43.77;101086.94;4513789;28;20149;-65
2023/09/15 01:05:31;;;;;;;0.95;0.70;;;;;;;22.48;43.46;101081.91;4535781;28;20558;-65
2023/09/15 01:07:45;;;;;;;1.02;0.75;;;;;;;22.44;43.62;101078.13;4539071;28;20032;-65
2023/09/15 01:09:55;;;;;;;0.82;0.60;;;;;;;22.44;43.67;101070.31;4536562;28;20040;-65
2023/09/15 01:12:07;;;;;;;0.90;0.60;;;;;;;22.46;43.82;101073.66;4520793;28;20119;-65
2023/09/15 01:14:18;;;;;;;1.42;0.70;;;;;;;22.48;43.55;101076.16;4523372;28;20029;-65
2023/09/15 01:16:36;;;;;;;0.80;0.57;;;;;;;22.47;43.67;101078.19;4520005;28;20490;-65
2023/09/15 01:18:58;;;;;;;0.73;0.55;;;;;;;22.48;43.19;101076.16;4537073;28;20028;-65
2023/09/15 01:21:53;;;;;;;0.93;0.55;;;;;;;22.46;43.62;101067.06;4538309;28;20596;-65
2023/09/15 01:24:09;;;;;;;0.70;0.52;;;;;;;22.47;43.78;101063.81;4529871;28;20251;-66
2023/09/15 01:26:53;;;;;;;0.52;0.50;;;;;;;22.47;43.47;101060.13;4538752;28;20037;-65
2023/09/15 01:29:25;;;;;;;0.77;0.60;;;;;;;22.46;43.56;101058.44;4525720;28;20072;-63
2023/09/15 01:31:37;;;;;;;0.50;0.50;;;;;;;22.42;43.32;101048.88;4517546;28;20037;-62
2023/09/15 01:33:48;;;;;;;0.82;0.70;;;;;;;22.46;43.42;101062.16;4529218;28;20109;-63
2023/09/15 01:35:59;;;;;;;0.60;0.60;;;;;;;22.44;43.17;101058.81;4539018;28;20029;-63
2023/09/15 01:38:10;;;;;;;0.55;0.52;;;;;;;22.44;43.13;101055.13;4507208;28;20034;-62
2023/09/15 01:40:20;;;;;;;0.60;0.50;;;;;;;22.43;42.76;101054.28;4513435;28;20050;-63
2023/09/15 01:42:30;;;;;;;0.60;0.60;;;;;;;22.43;43.26;101051.38;4537684;28;20043;-62
2023/09/15 01:44:41;;;;;;;0.57;0.50;;;;;;;22.44;42.98;101055.94;4536748;28;20512;-63
2023/09/15 01:46:53;;;;;;;0.95;0.70;;;;;;;22.39;42.77;101036.06;4526591;28;20036;-62
2023/09/15 01:49:04;;;;;;;0.63;0.50;;;;;;;22.39;43.01;101041.00;4537430;28;20035;-62
2023/09/15 01:51:15;;;;;;;0.82;0.63;;;;;;;22.39;42.79;101038.13;4537455;28;20102;-63
2023/09/15 01:53:26;;;;;;;0.80;0.60;;;;;;;22.43;42.81;101050.53;4520077;28;20083;-62
2023/09/15 01:55:38;;;;;;;0.77;0.60;;;;;;;22.42;43.22;101046.81;4517311;28;20037;-63
2023/09/15 01:57:48;;;;;;;1.42;0.65;;;;;;;22.37;42.99;101034.78;4498365;28;20042;-65
2023/09/15 01:59:59;;;;;;;0.70;0.50;;;;;;;22.33;43.01;101037.53;4537771;28;20041;-65
2023/09/15 02:02:10;;;;;;;0.68;0.52;;;;;;;22.39;42.86;101050.44;4538359;28;20052;-65
2023/09/15 02:04:20;;;;;;;1.08;0.60;;;;;;;22.38;42.83;101051.66;4521728;28;20509;-65
2023/09/15 02:06:31;;;;;;;1.73;0.70;;;;;;;22.39;43.22;101049.63;4528010;28;20130;-65
2023/09/15 02:08:41;;;;;;;0.80;0.60;;;;;;;22.34;42.63;101041.25;4526730;28;20033;-65
2023/09/15 02:10:51;;;;;;;0.70;0.60;;;;;;;22.39;43.07;101050.44;4522165;28;20502;-65
2023/09/15 02:13:02;;;;;;;0.93;0.50;;;;;;;22.36;43.47;101051.19;4536663;28;20466;-66
2023/09/15 02:15:14;;;;;;;0.77;0.50;;;;;;;22.36;42.94;101050.38;4538229;28;20131;-65
2023/09/15 02:17:25;;;;;;;1.45;0.63;;;;;;;22.34;42.86;101047.88;4541639;28;20029;-65
2023/09/15 02:19:36;;;;;;;1.05;0.65;;;;;;;22.34;42.55;101047.88;4528743;28;20033;-65
2023/09/15 02:21:47;;;;;;;0.57;0.50;;;;;;;22.37;43.21;101058.63;4537959;28;20041;-66
2023/09/15 02:23:57;;;;;;;1.15;0.60;;;;;;;22.37;42.79;101052.88;4520120;28;20040;-65
2023/09/15 02:26:08;;;;;;;0.73;0.73;;;;;;;22.35;43.05;101045.81;4526156;28;20030;-65
2023/09/15 02:28:19;;;;;;;0.60;0.60;;;;;;;22.32;42.73;101040.78;4540315;28;20037;-66
2023/09/15 02:30:29;;;;;;;0.43;0.43;;;;;;;22.34;43.19;101052.75;4538937;28;20037;-65
2023/09/15 02:32:40;;;;;;;0.80;0.57;;;;;;;22.36;43.04;101051.19;4524207;28;20021;-65
2023/09/15 02:34:50;;;;;;;0.82;0.50;;;;;;;22.36;42.78;101056.94;4543233;28;20041;-65
2023/09/15 02:37:00;;;;;;;0.70;0.52;;;;;;;22.36;42.61;101041.75;4521692;28;20044;-65
2023/09/15 02:39:11;;;;;;;0.55;0.52;;;;;;;22.26;42.63;101030.75;4529473;28;20087;-65
2023/09/15 02:41:22;;;;;;;0.93;0.50;;;;;;;22.33;42.85;101046.16;4540077;28;20151;-65
2023/09/15 02:43:32;;;;;;;0.60;0.50;;;;;;;22.33;42.65;101043.28;4534920;28;20176;-66
2023/09/15 02:45:43;;;;;;;0.73;0.50;;;;;;;22.34;42.71;101044.13;4518835;28;20030;-65
2023/09/15 02:47:53;;;;;;;0.73;0.50;;;;;;;22.33;42.91;101039.56;4536841;28;20024;-65
2023/09/15 02:50:04;;;;;;;0.70;0.57;;;;;;;22.32;42.51;101037.91;4541682;28;20036;-63
2023/09/15 02:52:15;;;;;;;0.40;0.40;;;;;;;22.34;42.46;101041.25;4537428;28;20040;-63
2023/09/15 02:54:27;;;;;;;0.57;0.50;;;;;;;22.32;42.29;101041.63;4537646;28;20032;-63
2023/09/15 02:56:39;;;;;;;0.93;0.50;;;;;;;22.28;42.38;101026.31;4528219;28;20033;-66
2023/09/15 02:58:49;;;;;;;0.95;0.50;;;;;;;22.28;42.34;101023.44;4532034;28;20845;-63
2023/09/15 03:01:09;;;;;;;0.65;0.43;;;;;;;22.25;42.48;101023.34;4524811;28;20022;-63
2023/09/15 03:03:24;;;;;;;0.47;0.40;;;;;;;22.31;42.26;101031.31;4520110;28;21080;-64
2023/09/15 03:05:34;;;;;;;0.93;0.50;;;;;;;22.32;42.10;101032.16;4527997;28;20034;-63
2023/09/15 03:07:45;;;;;;;0.82;0.60;;;;;;;22.32;42.31;101026.41;4530883;28;20045;-63
2023/09/15 03:09:58;;;;;;;0.50;0.50;;;;;;;22.28;41.56;101023.44;4531902;28;20825;-63
2023/09/15 03:12:08;;;;;;;0.68;0.50;;;;;;;22.26;42.06;101022.13;4531367;28;20076;-63
2023/09/15 03:14:19;;;;;;;1.00;0.52;;;;;;;22.29;41.88;101015.66;4523158;28;20184;-63
2023/09/15 03:16:30;;;;;;;0.57;0.50;;;;;;;22.29;42.13;101021.41;4520174;28;20117;-63
2023/09/15 03:18:42;;;;;;;0.40;0.40;;;;;;;22.27;41.72;101016.00;4532273;28;20033;-63
2023/09/15 03:20:53;;;;;;;0.65;0.52;;;;;;;22.29;41.94;101022.25;4521854;28;21223;-64
2023/09/15 03:23:03;;;;;;;0.70;0.60;;;;;;;22.29;41.60;101018.53;4538756;28;20108;-63
2023/09/15 03:25:17;;;;;;;1.25;0.65;;;;;;;22.27;41.76;101004.50;4526694;28;20702;-63
2023/09/15 03:27:27;;;;;;;0.63;0.50;;;;;;;22.28;41.72;101002.47;4523038;28;20091;-63
2023/09/15 03:29:38;;;;;;;1.00;0.60;;;;;;;22.27;41.99;101013.13;4528814;28;20067;-63
2023/09/15 03:31:49;;;;;;;0.85;0.50;;;;;;;22.26;41.66;101008.59;4540010;28;20036;-63
2023/09/15 03:34:00;;;;;;;1.58;0.50;;;;;;;22.27;42.08;101010.25;4530312;28;20111;-63
2023/09/15 03:36:12;;;;;;;0.40;0.40;;;;;;;22.25;42.66;101006.91;4538190;28;20037;-65
2023/09/15 03:38:22;;;;;;;0.47;0.40;;;;;;;22.24;42.16;100996.63;4538159;28;20033;-63
2023/09/15 03:40:33;;;;;;;0.40;0.40;;;;;;;22.17;41.89;100987.78;4519907;28;20710;-63
2023/09/15 03:42:44;;;;;;;0.75;0.50;;;;;;;22.20;41.61;100999.41;4520073;28;20159;-63
2023/09/15 03:44:54;;;;;;;1.08;0.40;;;;;;;22.27;42.00;101006.53;4538169;28;20068;-63
2023/09/15 03:47:05;;;;;;;1.10;0.60;;;;;;;22.20;41.71;100996.53;4523880;28;20672;-63
2023/09/15 03:49:15;;;;;;;0.90;0.50;;;;;;;22.25;41.54;101011.84;4540130;28;20038;-63
2023/09/15 03:51:26;;;;;;;0.50;0.50;;;;;;;22.23;41.73;101007.28;4522194;28;20587;-63
2023/09/15 03:53:37;;;;;;;0.60;0.60;;;;;;;22.18;41.78;100996.03;4539262;28;20958;-64
2023/09/15 03:55:49;;;;;;;0.65;0.50;;;;;;;22.22;42.19;100999.03;4524075;28;20113;-63
2023/09/15 03:57:59;;;;;;;0.45;0.40;;;;;;;22.23;41.90;100999.88;4521543;28;20041;-63
2023/09/15 04:00:17;;;;;;;0.57;0.50;;;;;;;22.22;41.91;100999.03;4520891;28;20029;-63
2023/09/15 04:02:28;;;;;;;1.30;0.50;;;;;;;22.21;41.45;100994.50;4531486;28;20032;-64
2023/09/15 04:04:39;;;;;;;0.63;0.60;;;;;;;22.21;41.40;101001.06;4538632;28;20032;-63
2023/09/15 04:06:49;;;;;;;0.65;0.60;;;;;;;22.20;41.91;100996.53;4526156;28;20021;-63
2023/09/15 04:09:00;;;;;;;0.47;0.45;;;;;;;22.21;41.73;101001.06;4537896;28;20033;-63
2023/09/15 04:11:10;;;;;;;0.90;0.50;;;;;;;22.21;41.53;100998.19;4529639;28;20490;-63
2023/09/15 04:13:21;;;;;;;0.80;0.70;;;;;;;22.15;41.48;100987.34;4520546;28;21088;-64
2023/09/15 04:15:31;;;;;;;0.40;0.40;;;;;;;22.17;42.12;100985.75;4523048;28;20029;-64
2023/09/15 04:17:43;;;;;;;0.80;0.60;;;;;;;22.20;41.79;100995.69;4522094;28;20038;-67
2023/09/15 04:19:53;;;;;;;0.50;0.40;;;;;;;22.20;41.89;100999.41;4537360;28;20531;-63
2023/09/15 04:22:04;;;;;;;0.60;0.50;;;;;;;22.20;41.24;100995.69;4521452;28;20042;-64
2023/09/15 04:24:14;;;;;;;0.60;0.40;;;;;;;22.17;41.51;100991.50;4520588;28;20572;-63
2023/09/15 04:26:25;;;;;;;1.38;0.57;;;;;;;22.14;41.05;100992.25;4537250;28;20551;-63
2023/09/15 04:28:36;;;;;;;0.43;0.40;;;;;;;22.19;41.59;101008.41;4524471;28;20926;-63
2023/09/15 04:30:47;;;;;;;0.45;0.40;;;;;;;22.15;41.60;100993.09;4538113;28;20152;-63
2023/09/15 04:32:59;;;;;;;0.70;0.50;;;;;;;22.16;41.34;100997.63;4535743;28;20124;-63
2023/09/15 04:35:11;;;;;;;0.88;0.60;;;;;;;22.18;41.26;100998.09;4508893;28;20801;-64
2023/09/15 04:37:22;;;;;;;0.43;0.43;;;;;;;22.18;41.61;101007.56;4521617;28;20090;-63
2023/09/15 04:39:33;;;;;;;1.20;0.52;;;;;;;22.02;41.66;100968.50;4520835;28;20034;-63
2023/09/15 04:41:43;;;;;;;0.70;0.50;;;;;;;22.17;41.77;101000.13;4522519;28;20029;-63
2023/09/15 04:43:56;;;;;;;0.52;0.50;;;;;;;22.17;42.04;101002.16;4537339;28;20902;-63
2023/09/15 04:46:07;;;;;;;0.60;0.57;;;;;;;22.11;41.59;100981.50;4530335;28;20028;-63
2023/09/15 04:48:18;;;;;;;0.65;0.50;;;;;;;22.15;41.76;100996.78;4526285;28;20037;-64
2023/09/15 04:50:28;;;;;;;1.13;0.55;;;;;;;22.15;42.12;100993.09;4536917;28;20037;-63
2023/09/15 04:52:39;;;;;;;1.08;0.60;;;;;;;22.15;42.05;100999.66;4518724;28;20025;-64
2023/09/15 04:54:49;;;;;;;0.70;0.50;;;;;;;22.11;42.18;100993.00;4525092;28;20057;-63
2023/09/15 04:57:00;;;;;;;0.98;0.47;;;;;;;22.14;41.69;101000.03;4515596;28;20099;-64
2023/09/15 04:59:15;;;;;;;1.13;0.70;;;;;;;22.10;41.70;100993.38;4522810;28;20052;-63
2023/09/15 05:01:26;;;;;;;1.08;0.60;;;;;;;22.09;41.59;100992.53;4506397;28;20042;-63
2023/09/15 05:03:38;;;;;;;0.60;0.35;;;;;;;22.14;41.74;101000.88;4537719;28;20041;-63
2023/09/15 05:05:51;;;;;;;0.70;0.50;;;;;;;22.10;42.03;100997.06;4524862;28;20034;-64
2023/09/15 05:08:02;;;;;;;0.75;0.60;;;;;;;22.14;42.04;101005.78;4519506;28;20821;-64
2023/09/15 05:10:13;;;;;;;0.65;0.47;;;;;;;22.09;41.92;100989.66;4517709;28;20060;-63
2023/09/15 05:12:24;;;;;;;0.90;0.57;;;;;;;22.13;41.71;101002.09;4528716;28;20125;-63
2023/09/15 05:14:34;;;;;;;0.50;0.50;;;;;;;22.07;41.46;100988.34;4519381;28;20105;-65
2023/09/15 05:16:45;;;;;;;0.98;0.60;;;;;;;22.05;42.04;100996.50;4538484;28;20552;-64
2023/09/15 05:18:55;;;;;;;0.50;0.50;;;;;;;22.06;41.83;100992.41;4521396;28;20038;-64
2023/09/15 05:21:06;;;;;;;0.93;0.60;;;;;;;22.05;41.96;100993.63;4525672;28;20033;-63
2023/09/15 05:23:17;;;;;;;0.60;0.50;;;;;;;22.11;41.87;100995.03;4521502;28;20077;-63
2023/09/15 05:25:27;;;;;;;0.68;0.55;;;;;;;22.11;41.99;100997.91;4520290;28;20410;-63
2023/09/15 05:27:39;;;;;;;0.77;0.45;;;;;;;22.11;41.74;101003.66;4525852;28;20832;-63
2023/09/15 05:29:50;;;;;;;0.80;0.70;;;;;;;22.06;41.83;100995.28;4523791;28;20048;-66
2023/09/15 05:32:01;;;;;;;0.50;0.50;;;;;;;22.09;41.31;101001.16;4520768;28;20065;-63
2023/09/15 05:34:11;;;;;;;1.15;0.60;;;;;;;22.04;41.97;100989.91;4528470;28;20033;-63
2023/09/15 05:36:23;;;;;;;1.10;0.68;;;;;;;22.06;41.65;100989.53;4523120;28;20038;-63
2023/09/15 05:38:33;;;;;;;0.88;0.70;;;;;;;22.09;42.04;100998.28;4539927;28;20470;-63
2023/09/15 05:40:44;;;;;;;1.52;0.50;;;;;;;22.08;41.70;101008.09;4527232;28;20410;-63
2023/09/15 05:42:54;;;;;;;1.17;0.70;;;;;;;22.02;41.89;100989.44;4529052;28;20037;-63
2023/09/15 05:45:05;;;;;;;0.90;0.60;;;;;;;22.07;41.80;100997.78;4541040;28;20048;-63
2023/09/15 05:47:16;;;;;;;0.70;0.50;;;;;;;22.06;41.89;100999.00;4528046;28;20838;-63
2023/09/15 05:49:26;;;;;;;0.90;0.70;;;;;;;22.06;41.94;101001.03;4540066;28;20037;-63
2023/09/15 05:51:36;;;;;;;0.85;0.60;;;;;;;22.07;42.20;101005.59;4541002;28;20021;-64
2023/09/15 05:53:47;;;;;;;0.82;0.60;;;;;;;22.03;42.13;100994.00;4542060;28;20393;-63
2023/09/15 05:55:57;;;;;;;0.82;0.75;;;;;;;22.06;42.04;100999.00;4514672;28;20584;-63
2023/09/15 05:58:08;;;;;;;1.30;0.70;;;;;;;22.05;42.52;100994.47;4540726;28;20103;-63
2023/09/15 06:00:19;;;;;;;1.17;0.60;;;;;;;22.06;42.40;100999.00;4541346;28;20043;-64
2023/09/15 06:02:29;;;;;;;1.58;0.70;;;;;;;22.05;42.68;100994.47;4539184;28;20100;-63
2023/09/15 06:04:42;;;;;;;1.08;0.70;;;;;;;22.06;42.25;100995.28;4507891;28;20088;-63
2023/09/15 06:06:53;;;;;;;0.90;0.60;;;;;;;22.05;42.73;100988.72;4526972;28;20048;-63
2023/09/15 06:09:03;;;;;;;1.25;0.73;;;;;;;22.04;42.55;100986.22;4541501;28;20048;-63
2023/09/15 06:11:14;;;;;;;0.93;0.57;;;;;;;22.04;42.73;100992.78;4541493;28;20083;-63
2023/09/15 06:13:24;;;;;;;0.70;0.60;;;;;;;21.99;43.27;100978.66;4541343;28;20441;-63
2023/09/15 06:15:35;;;;;;;1.33;0.80;;;;;;;22.04;43.53;100992.78;4539245;28;20367;-63
2023/09/15 06:17:45;;;;;;;1.05;0.73;;;;;;;22.06;43.39;100990.38;4540862;28;20045;-64
2023/09/15 06:19:56;;;;;;;1.00;0.73;;;;;;;22.04;44.05;100986.22;4540349;28;20416;-64
2023/09/15 06:22:06;;;;;;;1.02;0.60;;;;;;;22.06;44.11;100989.53;4524266;28;20054;-64
2023/09/15 06:24:16;;;;;;;1.02;0.63;;;;;;;22.05;44.46;100987.88;4539639;28;20433;-64
2023/09/15 06:26:27;;;;;;;1.23;0.80;;;;;;;22.02;44.20;100983.69;4522160;28;20048;-64
2023/09/15 06:28:37;;;;;;;0.80;0.70;;;;;;;22.01;44.12;100982.03;4541216;28;20028;-64
2023/09/15 06:30:48;;;;;;;1.33;0.80;;;;;;;21.90;44.19;100957.91;4540123;28;20029;-64
2023/09/15 06:32:58;;;;;;;1.10;0.90;;;;;;;22.03;44.28;100991.13;4539377;28;20828;-64
2023/09/15 06:35:12;;;;;;;1.50;1.08;;;;;;;22.05;44.64;101000.22;4540194;28;20028;-65
2023/09/15 06:37:23;;;;;;;2.05;0.85;;;;;;;22.01;44.69;100986.94;4538187;28;20033;-64
2023/09/15 06:39:35;;;;;;;1.52;0.70;;;;;;;22.05;44.66;100997.34;4541556;28;20037;-64
2023/09/15 06:41:46;;;;;;;0.98;0.60;;;;;;;22.01;45.03;100990.66;4537751;28;20046;-63
2023/09/15 06:44:06;;;;;;;1.27;0.80;;;;;;;22.03;44.95;100996.88;4539869;28;20565;-64
2023/09/15 06:46:20;;;;;;;1.38;0.90;;;;;;;22.01;45.05;100996.41;4539468;28;20064;-64
2023/09/15 06:48:30;;;;;;;1.13;0.90;;;;;;;22.01;45.15;100996.41;4530767;28;20037;-64
2023/09/15 06:50:40;;;;;;;1.10;0.95;;;;;;;21.99;45.07;100986.47;4538448;28;20038;-63
2023/09/15 06:52:51;;;;;;;1.75;1.10;;;;;;;22.02;45.54;100985.75;4539982;28;20044;-64
2023/09/15 06:55:01;;;;;;;1.30;1.00;;;;;;;21.86;45.08;100965.59;4539148;28;20037;-65
2023/09/15 06:57:12;;;;;;;1.80;0.93;;;;;;;21.99;45.65;100978.66;4538567;28;20036;-64
2023/09/15 06:59:22;;;;;;;1.25;1.00;;;;;;;21.99;45.63;100990.16;4539137;28;20037;-63
2023/09/15 07:01:33;;;;;;;1.20;1.10;;;;;;;21.99;45.79;100978.66;4541012;28;20056;-64
2023/09/15 07:03:43;;;;;;;1.40;1.00;;;;;;;22.00;46.09;100982.38;4539692;28;20098;-64
2023/09/15 07:05:54;;;;;;;1.08;0.90;;;;;;;22.00;46.08;100979.53;4526068;28;20545;-64
2023/09/15 07:08:05;;;;;;;1.15;1.02;;;;;;;21.98;46.32;100988.50;4527215;28;20926;-63
2023/09/15 07:10:15;;;;;;;1.35;1.00;;;;;;;21.99;46.58;100987.28;4542557;28;20037;-64
2023/09/15 07:12:25;;;;;;;1.27;1.10;;;;;;;22.00;46.41;100991.84;4523319;28;20045;-64
2023/09/15 07:14:36;;;;;;;2.15;1.00;;;;;;;21.99;46.72;100984.41;4539761;28;20033;-64
2023/09/15 07:16:47;;;;;;;1.23;1.00;;;;;;;21.99;46.68;100989.34;4540233;28;20086;-64
2023/09/15 07:18:59;;;;;;;1.40;1.10;;;;;;;21.98;46.96;100982.75;4540595;28;20577;-64
2023/09/15 07:21:09;;;;;;;1.67;1.20;;;;;;;21.97;47.04;100968.75;4540126;28;20084;-64
2023/09/15 07:23:20;;;;;;;1.50;0.95;;;;;;;21.97;47.22;100972.47;4538334;28;20168;-64
2023/09/15 07:25:30;;;;;;;1.10;1.00;;;;;;;22.00;47.30;100986.09;4539078;28;20493;-64
2023/09/15 07:27:40;;;;;;;1.40;0.90;;;;;;;21.98;47.84;100977.00;4538939;28;20422;-64
2023/09/15 07:29:51;;;;;;;1.10;0.98;;;;;;;21.98;47.87;100979.88;4539210;28;20024;-64
2023/09/15 07:32:02;;;;;;;1.10;1.00;;;;;;;22.01;47.76;100984.06;4539456;28;20039;-64
2023/09/15 07:34:12;;;;;;;1.08;0.95;;;;;;;21.96;47.59;100976.53;4521405;28;20498;-64
2023/09/15 07:36:23;;;;;;;1.45;1.00;;;;;;;22.00;48.06;100979.53;4539318;28;20445;-64
2023/09/15 07:38:33;;;;;;;1.58;1.10;;;;;;;21.98;48.25;100977.00;4538866;28;20655;-64
2023/09/15 07:40:44;;;;;;;1.17;0.80;;;;;;;21.99;48.15;100978.66;4537858;28;20075;-64
2023/09/15 07:42:54;;;;;;;1.40;0.93;;;;;;;22.02;48.65;100986.56;4538185;28;20099;-64
2023/09/15 07:45:05;;;;;;;1.63;1.10;;;;;;;22.00;48.82;100980.38;4538408;28;20029;-64
2023/09/15 07:47:15;;;;;;;1.73;1.20;;;;;;;22.02;48.16;100977.94;4538553;28;20486;-63
2023/09/15 07:49:26;;;;;;;2.47;1.30;;;;;;;22.02;48.95;100980.81;4539027;28;20047;-63
2023/09/15 07:51:37;;;;;;;1.48;1.25;;;;;;;22.02;48.77;100975.06;4542770;28;20513;-64
2023/09/15 07:53:47;;;;;;;1.23;1.13;;;;;;;22.00;48.98;100983.22;4538866;28;20572;-63
2023/09/15 07:55:58;;;;;;;0.80;0.80;;;;;;;22.02;48.94;100980.81;4537771;28;20033;-63
2023/09/15 07:58:08;;;;;;;1.60;1.20;;;;;;;21.98;49.44;100974.13;4514155;28;20037;-63
2023/09/15 08:00:19;;;;;;;1.10;1.00;;;;;;;21.99;49.64;100981.53;4538931;28;20120;-63
2023/09/15 08:02:31;;;;;;;1.15;1.05;;;;;;;22.00;49.46;100991.84;4503227;28;20037;-63
2023/09/15 08:04:42;;;;;;;1.40;1.10;;;;;;;21.94;49.27;100973.22;4536583;28;20804;-64
2023/09/15 08:06:54;;;;;;;1.33;1.00;;;;;;;21.93;49.48;100977.28;4540171;28;20036;-64
2023/09/15 08:09:04;;;;;;;1.63;1.15;;;;;;;21.98;49.12;100977.00;4529368;28;20049;-64
2023/09/15 08:11:15;;;;;;;1.40;1.10;;;;;;;22.02;49.08;100977.13;4537569;28;20070;-64
2023/09/15 08:13:26;;;;;;;1.10;0.95;;;;;;;21.98;49.13;100962.63;4538484;28;20121;-64
2023/09/15 08:15:36;;;;;;;1.52;1.20;;;;;;;21.99;49.38;100966.34;4541809;28;20037;-65
2023/09/15 08:17:47;;;;;;;1.35;1.00;;;;;;;22.01;49.30;100967.66;4539060;28;20063;-64
2023/09/15 08:19:58;;;;;;;1.27;0.93;;;;;;;22.01;49.18;100967.66;4537475;28;20034;-64
2023/09/15 08:22:09;;;;;;;1.92;1.10;;;;;;;22.00;49.75;100963.13;4537230;28;20049;-64
2023/09/15 08:24:22;;;;;;;1.52;1.10;;;;;;;22.02;49.99;100959.88;4537074;28;20468;-64
2023/09/15 08:26:32;;;;;;;1.25;1.10;;;;;;;21.99;49.48;100960.59;4521652;28;20040;-64
2023/09/15 08:28:43;;;;;;;1.20;1.10;;;;;;;22.02;50.06;100959.88;4538488;28;20040;-64
2023/09/15 08:30:53;;;;;;;1.05;0.90;;;;;;;22.01;49.59;100964.78;4540090;28;20048;-64
2023/09/15 08:33:05;;;;;;;1.48;1.10;;;;;;;22.03;50.24;100962.38;4539770;28;20571;-64
2023/09/15 08:35:15;;;;;;;0.80;0.80;;;;;;;22.01;49.81;100959.03;4528089;28;20041;-64
2023/09/15 08:37:26;;;;;;;1.08;0.98;;;;;;;21.97;50.00;100948.63;4538919;28;20045;-64
2023/09/15 08:39:36;;;;;;;1.30;1.20;;;;;;;22.02;50.23;100954.13;4534057;28;20056;-64
2023/09/15 08:42:00;;;;;;;1.73;1.02;;;;;;;22.03;50.23;100962.38;4539705;28;20107;-64
2023/09/15 08:44:16;;;;;;;1.50;1.10;;;;;;;22.03;50.37;100968.13;4537235;28;20713;-65
2023/09/15 08:46:30;;;;;;;1.50;1.10;;;;;;;21.98;50.45;100950.28;4537000;28;20075;-65
2023/09/15 08:48:48;;;;;;;1.30;1.08;;;;;;;22.01;50.56;100953.28;4540390;28;20048;-64
2023/09/15 08:50:59;;;;;;;1.40;1.10;;;;;;;22.02;50.32;100954.94;4538220;28;20033;-64
2023/09/15 08:53:10;;;;;;;1.35;1.08;;;;;;;21.91;49.84;100927.94;4538275;28;20029;-64
2023/09/15 08:55:21;;;;;;;1.70;1.17;;;;;;;22.03;49.90;100944.28;4538180;28;20035;-65
2023/09/15 08:57:33;;;;;;;1.15;1.05;;;;;;;21.98;49.90;100936.78;4538950;28;20033;-64
2023/09/15 08:59:44;;;;;;;1.30;1.20;;;;;;;22.01;51.02;100946.69;4539039;28;20044;-64
2023/09/15 09:01:55;;;;;;;1.45;1.10;;;;;;;22.02;50.94;100942.63;4535969;28;20246;-64
2023/09/15 09:04:06;;;;;;;1.45;1.10;;;;;;;22.01;50.85;100941.78;4538698;28;20025;-65
2023/09/15 09:06:18;;;;;;;2.03;1.25;;;;;;;21.98;50.15;100942.53;4537694;28;20077;-64
2023/09/15 09:08:29;;;;;;;1.52;1.30;;;;;;;21.98;50.60;100931.03;4538073;28;20974;-64
2023/09/15 09:10:40;;;;;;;1.00;0.90;;;;;;;22.02;50.39;100949.19;4538170;28;20077;-64
2023/09/15 09:12:50;;;;;;;1.60;1.00;;;;;;;22.00;50.58;100939.28;4537583;28;20532;-65
2023/09/15 09:15:01;;;;;;;1.38;1.10;;;;;;;22.02;51.33;100936.88;4536899;28;20739;-65
2023/09/15 09:17:11;;;;;;;1.38;1.23;;;;;;;22.01;51.10;100938.06;4540282;28;20025;-64
2023/09/15 09:19:23;;;;;;;1.30;1.20;;;;;;;22.02;51.18;100943.44;4524346;28;20137;-64
2023/09/15 09:21:34;;;;;;;1.40;1.20;;;;;;;21.99;50.62;100931.88;4537396;28;20029;-65
2023/09/15 09:23:44;;;;;;;1.27;1.10;;;;;;;22.00;50.57;100930.66;4537445;28;20057;-65
2023/09/15 09:25:55;;;;;;;1.27;1.17;;;;;;;22.03;50.89;100935.66;4519515;28;20028;-64
2023/09/15 09:28:06;;;;;;;1.30;1.17;;;;;;;21.99;51.11;100926.13;4538487;28;20037;-65
2023/09/15 09:30:16;;;;;;;2.17;1.30;;;;;;;22.02;50.87;100931.13;4538067;28;20119;-64
2023/09/15 09:32:26;;;;;;;1.70;1.30;;;;;;;22.01;50.53;100917.94;4523537;28;20065;-64
2023/09/15 09:34:37;;;;;;;1.52;1.02;;;;;;;21.99;51.28;100909.69;4536299;28;20247;-65
2023/09/15 09:36:51;;;;;;;1.00;0.90;;;;;;;22.03;51.90;100916.38;4535986;28;20065;-64
2023/09/15 09:39:02;;;;;;;1.30;1.20;;;;;;;21.99;51.71;100915.44;4538119;28;20124;-64
2023/09/15 09:41:15;;;;;;;1.17;1.08;;;;;;;22.03;51.75;100913.50;4537177;28;20120;-64
2023/09/15 09:43:25;;;;;;;1.70;1.23;;;;;;;22.04;51.87;100920.09;4536924;28;20044;-64
2023/09/15 09:45:36;;;;;;;1.67;1.30;;;;;;;22.00;51.44;100908.50;4537520;28;20591;-64
2023/09/15 09:47:48;;;;;;;1.48;1.20;;;;;;;22.01;51.52;100907.28;4518110;28;20573;-65
2023/09/15 09:49:58;;;;;;;1.17;1.08;;;;;;;21.98;51.00;100905.16;4525820;28;20041;-67
2023/09/15 09:52:09;;;;;;;1.45;1.30;;;;;;;21.97;51.08;100897.75;4538240;28;20043;-64
2023/09/15 09:54:22;;;;;;;1.58;1.20;;;;;;;22.02;51.11;100897.44;4537239;28;20022;-65
2023/09/15 09:56:33;;;;;;;1.50;1.27;;;;;;;22.00;51.36;100891.25;4536079;28;20076;-65
2023/09/15 09:58:44;;;;;;;1.10;1.00;;;;;;;22.03;51.80;100893.38;4536625;28;20041;-64
2023/09/15 10:00:54;;;;;;;1.27;1.17;;;;;;;22.01;51.51;100895.78;4537987;28;20084;-64
2023/09/15 10:03:05;;;;;;;1.98;1.20;;;;;;;22.03;51.58;100896.25;4538965;28;20136;-64
2023/09/15 10:05:15;;;;;;;1.75;1.20;;;;;;;22.03;51.56;100892.53;4538260;28;20037;-64
2023/09/15 10:07:26;;;;;;;1.20;1.10;;;;;;;22.03;51.89;100890.50;4536665;28;20095;-65
2023/09/15 10:09:38;;;;;;;1.55;1.30;;;;;;;22.03;51.89;100899.13;4530840;28;20118;-66
2023/09/15 10:11:48;;;;;;;1.40;1.30;;;;;;;22.03;51.79;100890.50;4519563;28;20037;-65